Drachten Airfield

EHDR · Friesland, Netherlands

METAR history EHDR · Drachten Airfield

Below you see METARs of the last few days. Select a year to browse through older METARs, from the year 2007 onwards.

February 27, 2024

Time Code Weather Temp. Visibility Ceiling Wind METAR/SPECI
07:18
M
3 °C 10 km+ 2,400 ft 060° 060° 4 kt METAR EHLW 270618Z AUTO 06004KT 010V110 9999 BKN024 03/02 Q1019 WHT
07:02
M
4 °C 10 km+ 2,500 ft 040° 040° 4 kt METAR EHLW 270602Z AUTO 04004KT 010V100 9999 FEW021 OVC025 04/02 Q1019 BLU
06:55
M
4 °C 10 km+ 2,500 ft 030° 030° 5 kt METAR EHLW 270555Z AUTO 03005KT 010V070 9999 SCT022 OVC025 04/02 Q1019 WHT
06:25
M
3 °C 10 km+ 2,600 ft 020° 020° 5 kt METAR EHLW 270525Z AUTO 02005KT 9999 OVC026 03/02 Q1019 BLU
06:11
M
4 °C 10 km+ 2,600 ft 040° 040° 4 kt METAR EHLW 270511Z AUTO 04004KT 010V070 9999 OVC026 04/03 Q1019 BLU
05:55
M
4 °C 10 km+ 2,200 ft 020° 020° 5 kt METAR EHLW 270455Z AUTO 02005KT 9999 OVC022 04/02 Q1019 WHT
05:25
M
3 °C 10 km+ 1,800 ft 020° 020° 4 kt METAR EHLW 270425Z AUTO 02004KT 9999 BKN018 OVC022 03/02 Q1018 WHT
05:12
M
3 °C 10 km+ 2,400 ft 040° 040° 3 kt METAR EHLW 270412Z AUTO 04003KT 360V070 9999 OVC024 03/02 Q1018 WHT
05:11
M
3 °C 10 km+ 2,500 ft 050° 050° 3 kt METAR EHLW 270411Z AUTO 05003KT 360V080 9999 FEW021 OVC025 03/02 Q1018 BLU
04:55
M
2 °C 10 km+ 2,200 ft 040° 040° 4 kt METAR EHLW 270355Z AUTO 04004KT 010V070 9999 FEW019 OVC022 02/01 Q1018 WHT
04:37
V
3 °C 10 km+ - 040° 040° 4 kt METAR EHLW 270337Z AUTO 04004KT 010V070 9999 SCT023 03/01 Q1018 WHT
04:25
M
3 °C 10 km+ 2,200 ft 050° 050° 4 kt METAR EHLW 270325Z AUTO 05004KT 020V100 9999 FEW019 BKN022 BKN026 03/01 Q1018 WHT
04:13
M
2 °C 10 km+ 2,900 ft 060° 060° 6 kt METAR EHLW 270313Z AUTO 06006KT 340V120 9999 FEW018 SCT022 BKN029 02/01 Q1018 WHT
04:07
M
3 °C 10 km+ 2,900 ft 050° 050° 6 kt METAR EHLW 270307Z AUTO 05006KT 010V120 9999 FEW019 SCT026 BKN029 03/01 Q1018 BLU
04:05
M
3 °C 10 km+ 2,400 ft 050° 050° 6 kt METAR EHLW 270305Z AUTO 05006KT 010V100 9999 BKN024 BKN028 03/01 Q1018 WHT
04:01
M
3 °C 10 km+ 2,500 ft 050° 050° 5 kt METAR EHLW 270301Z AUTO 05005KT 360V110 9999 FEW021 OVC025 03/01 Q1018 BLU
03:55
M
3 °C 10 km+ 2,400 ft 050° 050° 5 kt METAR EHLW 270255Z AUTO 05005KT 360V110 9999 SCT020 BKN024 OVC028 03/01 Q1018 WHT
03:25
V
1 °C 10 km+ - 030° 030° 5 kt METAR EHLW 270225Z AUTO 03005KT 9999 NCD 01/00 Q1018 BLU
02:55
V
2 °C 10 km+ - 040° 040° 6 kt METAR EHLW 270155Z AUTO 04006KT 360V080 9999 NCD 02/00 Q1018 BLU
02:25
V
2 °C 10 km+ - 030° 030° 6 kt METAR EHLW 270125Z AUTO 03006KT 9999 NCD 02/00 Q1018 BLU
01:55
V
1 °C 10 km+ - 020° 020° 7 kt METAR EHLW 270055Z AUTO 02007KT 9999 FEW024 01/M00 Q1018 BLU
01:25
V
2 °C 10 km+ - 030° 030° 8 kt METAR EHLW 270025Z AUTO 03008KT 360V070 9999 NCD 02/00 Q1018 BLU RMK CB INFO NOT AVBL
00:55
V
2 °C 10 km+ - 030° 030° 8 kt METAR EHLW 262355Z AUTO 03008KT 9999 NCD 02/00 Q1017 BLU
00:25
V
3 °C 10 km+ - 030° 030° 8 kt METAR EHLW 262325Z AUTO 03008KT 9999 NCD 03/01 Q1017 BLU

February 26, 2024

Time Code Weather Temp. Visibility Ceiling Wind METAR/SPECI
23:55
V
4 °C 10 km+ - 030° 030° 9 kt METAR EHLW 262255Z AUTO 03009KT 9999 NCD 04/01 Q1017 BLU
23:29
V
4 °C 10 km+ - 040° 040° 9 kt METAR EHLW 262229Z AUTO 04009KT 360V090 9999 FEW026 04/01 Q1017 BLU
23:25
V
4 °C 10 km+ - 040° 040° 9 kt METAR EHLW 262225Z AUTO 04009KT 360V090 9999 SCT023 04/01 Q1017 WHT
23:18
V
4 °C 10 km+ - 040° 040° 8 kt METAR EHLW 262218Z AUTO 04008KT 360V070 9999 SCT023 04/01 Q1017 WHT
22:55
V
4 °C 10 km+ - 040° 040° 9 kt METAR EHLW 262155Z AUTO 04009KT 360V100 9999 SCT025 04/01 Q1016 BLU
22:25
M
5 °C 10 km+ 2,600 ft 050° 050° 9 kt METAR EHLW 262125Z AUTO 05009KT 360V100 9999 BKN026 05/02 Q1016 BLU
22:19
M
5 °C 10 km+ 2,500 ft 050° 050° 10 kt METAR EHLW 262119Z AUTO 05010KT 360V100 9999 BKN025 BKN028 05/02 Q1016 BLU
21:56
M
5 °C 10 km+ 2,500 ft 050° 050° 9 kt METAR EHLW 262056Z AUTO 05009KT 360V120 9999 FEW018 SCT022 BKN025 05/02 Q1016 WHT
21:55
M
4 °C 10 km+ 2,500 ft 050° 050° 9 kt METAR EHLW 262055Z AUTO 05009KT 360V120 9999 FEW022 BKN025 04/02 Q1016 BLU
21:44
M
5 °C 10 km+ 2,500 ft 050° 050° 8 kt METAR EHLW 262044Z AUTO 05008KT 360V100 9999 FEW021 OVC025 05/02 Q1016 BLU
21:25
M
5 °C 10 km+ 2,300 ft 040° 040° 11 kt METAR EHLW 262025Z AUTO 04011KT 010V070 9999 OVC023 05/02 Q1015 WHT
21:16
M
5 °C 10 km+ 2,400 ft 050° 050° 11 kt METAR EHLW 262016Z AUTO 05011KT 360V080 9999 BKN024 05/02 Q1015 WHT
21:08
M
5 °C 10 km+ 2,500 ft 050° 050° 10 kt METAR EHLW 262008Z AUTO 05010KT 350V090 9999 FEW021 OVC025 05/02 Q1015 BLU
20:55
M
5 °C 10 km+ 2,300 ft 040° 040° 11 kt METAR EHLW 261955Z AUTO 04011KT 340V080 9999 SCT019 OVC023 05/02 Q1015 WHT
20:25
M
5 °C 10 km+ 2,100 ft 040° 040° 11 kt METAR EHLW 261925Z AUTO 04011KT 360V080 9999 BKN021 OVC024 05/02 Q1015 WHT
19:55
M
5 °C 10 km+ 2,000 ft 030° 030° 11 kt METAR EHLW 261855Z AUTO 03011KT 360V060 9999 OVC020 05/02 Q1014 RE// WHT
19:32
V
5 °C 10 km+ 21,000 ft 030° 030° 14 kt METAR EHLW 261832Z AUTO 03014KT 360V060 9999 SCT020 OVC210 05/01 Q1014 WHT
19:25
V
5 °C 10 km+ 20,000 ft 040° 040° 16 kt METAR EHLW 261825Z AUTO 04016KT 360V070 9999 OVC200 05/01 Q1014 BLU
19:17
V
5 °C 10 km+ 20,000 ft 040° 040° 16 kt METAR EHLW 261817Z AUTO 04016KT 350V070 9999 FEW022 OVC200 05/01 Q1014 BLU
18:55
M
5 °C 10 km+ 2,000 ft 030° 030° 14 kt METAR EHLW 261755Z AUTO 03014KT 350V060 9999 BKN020 OVC180 05/02 Q1013 WHT
18:25
V
5 °C 10 km+ 16,000 ft 040° 040° 16 kt METAR EHLW 261725Z AUTO 04016KT 360V070 9999 FEW021 OVC160 05/02 Q1013 BLU
18:13
V
5 °C 10 km+ 15,000 ft 040° 040° 14 kt METAR EHLW 261713Z AUTO 04014KT 360V070 9999 FEW019 OVC150 05/02 Q1013 BLU
18:03
V
5 °C 10 km+ 15,000 ft 040° 040° 15 kt METAR EHLW 261703Z AUTO 04015KT 360V080 9999 SCT019 OVC150 05/02 Q1013 WHT
17:56
V
5 °C 10 km+ 15,000 ft 040° 040° 16 kt METAR EHLW 261656Z AUTO 04016KT 360V080 9999 FEW020 OVC150 05/02 Q1012 BLU
17:25
M
5 °C 10 km+ 1,800 ft 040° 040° 15 kt METAR EHLW 261625Z AUTO 04015KT 350V080 9999 OVC018 05/02 Q1012 WHT
16:55
M
6 °C 10 km+ 1,600 ft 040° 040° 16 kt METAR EHLW 261555Z AUTO 04016KT 360V080 9999 BKN016 OVC020 06/02 Q1012 WHT
16:25
V
5 °C 10 km+ 13,000 ft 050° 050° 20 kt METAR EHLW 261525Z AUTO 05020KT 360V100 9999 SCT021 OVC130 05/02 Q1011 WHT
15:55
M
5 °C 10 km+ 1,800 ft 050° 050° 17 kt METAR EHLW 261455Z AUTO 05017KT 350V100 9999 BKN018 OVC120 05/02 Q1011 WHT
15:25
M
5 °C 10 km+ 1,600 ft 050° 050° 19 kt METAR EHLW 261425Z AUTO 05019KT 360V100 9999 OVC016 05/02 Q1011 WHT
14:55
M
5 °C 10 km+ 1,500 ft 040° 040° 17 kt METAR EHLW 261355Z AUTO 04017KT 360V100 9999 OVC015 05/02 Q1010 WHT NOSIG
14:34
M
5 °C 10 km+ 1,600 ft 040° 040° 18 kt METAR EHLW 261334Z AUTO 04018KT 360V090 9999 OVC016 05/02 Q1010 WHT NOSIG
14:25
M
6 °C 10 km+ 1,600 ft 040° 040° 20 kt METAR EHLW 261325Z AUTO 04020KT 350V090 9999 OVC016 06/03 Q1010 WHT TEMPO SCT015 BKN020
13:55
M
6 °C 10 km+ 1,600 ft 040° 040° 20 kt METAR EHLW 261255Z AUTO 04020KT 360V080 9999 OVC016 06/03 Q1009 WHT TEMPO SCT015 BKN020
13:25
M
6 °C 10 km+ 1,900 ft 050° 050° 19 kt METAR EHLW 261225Z AUTO 05019KT 360V130 9999 SCT016 BKN019 OVC023 06/03 Q1009 WHT TEMPO SCT015 BKN020
12:55
M
6 °C 10 km+ 2,100 ft 060° 060° 19 kt METAR EHLW 261155Z AUTO 06019KT 350V120 9999 FEW018 BKN021 BKN024 06/03 Q1009 WHT TEMPO SCT015 BKN020
12:30
V
6 °C 10 km+ 13,000 ft 050° 050° 19 kt METAR EHLW 261130Z AUTO 05019KT 360V110 9999 FEW017 SCT021 OVC130 06/03 Q1009 WHT TEMPO SCT015 BKN020
12:25
V
6 °C 10 km+ 13,000 ft 050° 050° 19 kt METAR EHLW 261125Z AUTO 05019KT 360V110 9999 FEW019 OVC130 06/03 Q1009 BLU TEMPO SCT015 BKN020
12:02
M
6 °C 10 km+ 2,000 ft 060° 060° 17 kt METAR EHLW 261102Z AUTO 06017KT 350V140 9999 SCT016 OVC020 06/03 Q1009 WHT TEMPO SCT015 BKN020
11:55
M
6 °C 10 km+ 1,700 ft 060° 060° 18 kt METAR EHLW 261055Z AUTO 06018KT 350V160 9999 BKN017 OVC021 06/03 Q1008 WHT TEMPO SCT015
11:25
M
6 °C 10 km+ 1,900 ft 050° 050° 20 kt METAR EHLW 261025Z AUTO 05020KT 360V120 9999 BKN019 OVC023 06/03 Q1008 WHT TEMPO SCT015
10:55
V
6 °C 10 km+ 15,000 ft 050° 050° 16 kt METAR EHLW 260955Z AUTO 05016KT 360V100 9999 SCT019 OVC150 06/03 Q1007 WHT TEMPO SCT015
10:25
V
5 °C 10 km+ 15,000 ft 050° 050° 16 kt METAR EHLW 260925Z AUTO 05016KT 360V100 9999 FEW016 OVC150 05/03 Q1007 BLU TEMPO SCT015
10:11
V
5 °C 10 km+ 15,000 ft 040° 040° 16 kt METAR EHLW 260911Z AUTO 04016KT 350V100 9999 SCT016 OVC150 05/03 Q1007 WHT TEMPO SCT012 BKN015
09:55
V
5 °C 10 km+ 16,000 ft 050° 050° 15 kt METAR EHLW 260855Z AUTO 05015KT 360V100 9999 OVC160 05/03 Q1007 BLU TEMPO SCT012 BKN015
09:33
V
5 °C 10 km+ 16,000 ft 050° 050° 14 kt METAR EHLW 260833Z AUTO 05014KT 360V100 9999 FEW016 OVC160 05/03 Q1007 BLU TEMPO SCT012 BKN015
09:25
M
5 °C 10 km+ 1,600 ft 050° 050° 14 kt METAR EHLW 260825Z AUTO 05014KT 350V120 9999 OVC016 05/03 Q1007 WHT TEMPO SCT012 BKN015
09:20
V
4 °C 10 km+ 15,000 ft 050° 050° 14 kt METAR EHLW 260820Z AUTO 05014KT 330V120 9999 SCT016 OVC150 04/02 Q1006 WHT TEMPO SCT012 BKN015
09:16
V
4 °C 10 km+ 15,000 ft 050° 050° 14 kt METAR EHLW 260816Z AUTO 05014KT 330V100 9999 FEW016 OVC150 04/02 Q1006 BLU TEMPO SCT012 BKN015
09:06
V
4 °C 10 km+ 15,000 ft 050° 050° 14 kt METAR EHLW 260806Z AUTO 05014KT 360V100 9999 SCT016 OVC150 04/02 Q1006 WHT TEMPO SCT012 BKN015
08:55
V
4 °C 10 km+ 16,000 ft 050° 050° 14 kt METAR EHLW 260755Z AUTO 05014KT 350V090 9999 OVC160 04/02 Q1006 BLU TEMPO SCT012 BKN015
08:25
V
4 °C 10 km+ 16,000 ft 040° 040° 13 kt METAR EHLW 260725Z AUTO 04013KT 350V100 9999 OVC160 04/02 Q1006 BLU TEMPO SCT012 BKN015
08:18
V
4 °C 10 km+ 16,000 ft 050° 050° 13 kt METAR EHLW 260718Z AUTO 05013KT 360V100 9999 FEW016 OVC160 04/02 Q1006 BLU TEMPO SCT012 BKN015
08:17
V
4 °C 10 km+ 16,000 ft 040° 040° 13 kt METAR EHLW 260717Z AUTO 04013KT 360V080 9999 FEW016 OVC160 04/02 Q1006 BLU NOSIG
07:55
M
4 °C 10 km+ 1,700 ft 050° 050° 12 kt METAR EHLW 260655Z AUTO 05012KT 350V100 9999 OVC017 04/02 Q1006 WHT NOSIG
07:25
M
4 °C 10 km+ 1,600 ft 050° 050° 10 kt METAR EHLW 260625Z AUTO 05010KT 330V090 9999 OVC016 04/02 Q1005 WHT NOSIG
07:14
V
4 °C 10 km+ 17,000 ft 040° 040° 11 kt METAR EHLW 260614Z AUTO 04011KT 360V080 9999 SCT017 OVC170 04/02 Q1005 WHT
06:55
V
4 °C 10 km+ 18,000 ft 040° 040° 14 kt METAR EHLW 260555Z AUTO 04014KT 360V070 9999 FEW016 OVC180 04/02 Q1005 BLU
06:41
V
4 °C 10 km+ 18,000 ft 050° 050° 13 kt METAR EHLW 260541Z AUTO 05013KT 360V100 9999 FEW017 OVC180 04/02 Q1005 BLU
06:25
M
4 °C 10 km+ 1,500 ft 050° 050° 12 kt METAR EHLW 260525Z AUTO 05012KT 360V100 9999 BKN015 OVC200 04/03 Q1005 WHT
05:55
M
4 °C 10 km+ 1,500 ft 050° 050° 12 kt METAR EHLW 260455Z AUTO 05012KT 340V110 9999 BKN015 OVC180 04/02 Q1004 WHT
05:35
M
4 °C 10 km+ 1,500 ft 060° 060° 11 kt METAR EHLW 260435Z AUTO 06011KT 330V120 9999 OVC015 04/02 Q1004 WHT
05:25
M
4 °C 10 km+ 1,400 ft 060° 060° 12 kt METAR EHLW 260425Z AUTO 06012KT 340V150 9999 BKN014 OVC200 04/03 Q1004 GRN
05:11
M
4 °C 10 km+ 1,300 ft 060° 060° 10 kt METAR EHLW 260411Z AUTO 06010KT 330V120 9999 BKN013 OVC200 04/03 Q1004 GRN
05:07
V
4 °C 10 km+ 20,000 ft 060° 060° 11 kt METAR EHLW 260407Z AUTO 06011KT 340V120 9999 SCT013 OVC200 04/02 Q1004 GRN
04:55
V
3 °C 10 km+ 21,000 ft 050° 050° 10 kt METAR EHLW 260355Z AUTO 05010KT 360V100 9999 OVC210 03/02 Q1004 BLU
04:37
V
3 °C 10 km+ 22,000 ft 050° 050° 9 kt METAR EHLW 260337Z AUTO 05009KT 340V110 9999 FEW012 OVC220 03/02 Q1004 BLU
04:30
V
3 °C 10 km+ 22,000 ft 050° 050° 9 kt METAR EHLW 260330Z AUTO 05009KT 340V100 9999 SCT012 OVC220 03/02 Q1004 GRN
04:25
V
3 °C 10 km+ 22,000 ft 050° 050° 9 kt METAR EHLW 260325Z AUTO 05009KT 340V100 9999 OVC220 03/02 Q1003 BLU
03:55
V
3 °C 10 km+ 26,000 ft 050° 050° 9 kt METAR EHLW 260255Z AUTO 05009KT 360V100 9999 OVC260 03/02 Q1003 BLU
03:25
V
3 °C 10 km+ 28,000 ft 050° 050° 10 kt METAR EHLW 260225Z AUTO 05010KT 360V110 9999 OVC280 03/02 Q1003 BLU
02:55
V
3 °C 10 km+ 22,000 ft 060° 060° 10 kt METAR EHLW 260155Z AUTO 06010KT 360V120 9999 OVC220 03/02 Q1003 BLU
02:25
V
3 °C 10 km+ 21,000 ft 060° 060° 9 kt METAR EHLW 260125Z AUTO 06009KT 330V130 9999 OVC210 03/02 Q1003 BLU
01:55
V
3 °C 10 km+ 21,000 ft 060° 060° 8 kt METAR EHLW 260055Z AUTO 06008KT 350V130 9999 OVC210 03/02 Q1003 BLU
01:25
V
3 °C 10 km+ 23,000 ft 050° 050° 9 kt METAR EHLW 260025Z AUTO 05009KT 360V110 9999 OVC230 03/02 Q1002 BLU
00:55
V
3 °C 10 km+ 23,000 ft 060° 060° 9 kt METAR EHLW 252355Z AUTO 06009KT 360V120 9999 OVC230 03/02 Q1002 BLU
00:42
V
3 °C 8 km 23,000 ft 060° 060° 8 kt METAR EHLW 252342Z AUTO 06008KT 010V100 8000 BR OVC230 03/02 Q1002 BLU
00:26
V
3 °C 8 km 24,000 ft 060° 060° 9 kt METAR EHLW 252326Z AUTO 06009KT 360V120 8000 BR OVC240 03/02 Q1002 BLU
00:25
M
3 °C 6 km 24,000 ft 060° 060° 8 kt METAR EHLW 252325Z AUTO 06008KT 360V120 6000 BR OVC240 03/02 Q1002 WHT
00:09
M
3 °C 5 km 24,000 ft 060° 060° 7 kt METAR EHLW 252309Z AUTO 06007KT 360V100 5000 BR OVC240 03/02 Q1002 WHT

February 25, 2024

Time Code Weather Temp. Visibility Ceiling Wind METAR/SPECI
23:56
M
3 °C 5 km 24,000 ft 060° 060° 7 kt METAR EHLW 252256Z AUTO 06007KT 340V120 5000 BR BKN240 OVC290 03/02 Q1002 WHT
23:38
I
3 °C 4.6 km 5,600 ft 070° 070° 6 kt METAR EHLW 252238Z AUTO 07006KT 340V120 4600 BR OVC056 03/03 Q1002 GRN
23:25
M
3 °C 6 km - 070° 070° 7 kt METAR EHLW 252225Z AUTO 07007KT 6000 BR SCT260 03/03 Q1002 WHT
22:55
M
3 °C 7 km 25,000 ft 060° 060° 8 kt METAR EHLW 252155Z AUTO 06008KT 010V100 7000 BR OVC250 03/03 Q1002 WHT
22:25
V
3 °C 10 km+ 26,000 ft 070° 070° 7 kt METAR EHLW 252125Z AUTO 07007KT 330V130 9999 FEW032 OVC260 03/03 Q1002 BLU
22:05
V
4 °C 10 km+ 26,000 ft 070° 070° 7 kt METAR EHLW 252105Z AUTO 07007KT 360V120 9999 OVC260 04/03 Q1002 BLU
21:55
V
4 °C 9 km 3,300 ft 070° 070° 7 kt METAR EHLW 252055Z AUTO 07007KT 360V120 9000 BR BKN033 BKN280 04/03 Q1002 BLU
21:43
V
4 °C 8 km 3,300 ft 070° 070° 7 kt METAR EHLW 252043Z AUTO 07007KT 020V110 8000 BR FEW029 BKN033 04/03 Q1002 BLU
21:41
M
4 °C 7 km 3,300 ft 070° 070° 7 kt METAR EHLW 252041Z AUTO 07007KT 360V120 7000 BR SCT029 BKN033 04/03 Q1002 WHT
21:33
V
4 °C 9 km 3,100 ft 070° 070° 7 kt METAR EHLW 252033Z AUTO 07007KT 9000 BR SCT027 OVC031 04/03 Q1002 BLU
21:25
M
4 °C 5 km 2,800 ft 070° 070° 6 kt METAR EHLW 252025Z AUTO 07006KT 020V140 5000 BR FEW025 BKN028 BKN031 04/03 Q1002 WHT
21:18
M
4 °C 5 km 2,500 ft 080° 080° 6 kt METAR EHLW 252018Z AUTO 08006KT 020V120 5000 BR BKN025 OVC028 04/03 Q1002 WHT
21:12
I
3 °C 3.8 km 2,500 ft 070° 070° 7 kt METAR EHLW 252012Z AUTO 07007KT 010V110 3800 BR OVC025 03/03 Q1002 GRN
21:09
I
3 °C 3.4 km 2,500 ft 070° 070° 6 kt METAR EHLW 252009Z AUTO 07006KT 010V120 3400 BR BKN025 BKN028 OVC290 03/03 Q1002 YLO
21:05
I
3 °C 4.5 km 29,000 ft 070° 070° 6 kt METAR EHLW 252005Z AUTO 07006KT 010V120 4500 BR SCT025 SCT029 OVC290 03/02 Q1002 GRN
20:59
I
3 °C 3.4 km 29,000 ft 070° 070° 6 kt METAR EHLW 251959Z AUTO 07006KT 360V110 3400 BR OVC290 03/02 Q1002 YLO
20:55
I
3 °C 4.3 km 30,000 ft 070° 070° 5 kt METAR EHLW 251955Z AUTO 07005KT 360V120 4300 BR OVC300 03/02 Q1002 GRN
20:25
M
4 °C 6 km 28,000 ft 060° 060° 6 kt METAR EHLW 251925Z AUTO 06006KT 360V100 6000 BR OVC280 04/03 Q1001 WHT
20:06
M
4 °C 7 km - 080° 080° 4 kt METAR EHLW 251906Z AUTO 08004KT 020V140 7000 BR FEW280 04/03 Q1001 WHT
19:58
V
4 °C 9 km - 060° 060° 5 kt METAR EHLW 251858Z AUTO 06005KT 350V110 9000 BR SCT270 04/03 Q1001 BLU
19:55
M
4 °C 6 km 27,000 ft 060° 060° 7 kt METAR EHLW 251855Z AUTO 06007KT 010V080 6000 BR OVC270 04/03 Q1001 WHT
19:25
M
4 °C 6 km - 060° 060° 6 kt METAR EHLW 251825Z AUTO 06006KT 360V100 6000 BR SCT310 04/03 Q1001 WHT
18:55
M
5 °C 6 km 5,600 ft 040° 040° 6 kt METAR EHLW 251755Z AUTO 04006KT 350V090 6000 BR BKN056 05/04 Q1001 WHT
18:25
V
5 °C 10 km+ - 060° 060° 3 kt METAR EHLW 251725Z AUTO 06003KT 030V090 9999 SCT056 SCT260 05/04 Q1001 BLU
17:55
V
7 °C 10 km+ 5,000 ft Var Var 1 kt METAR EHLW 251655Z AUTO VRB01KT 9999 BKN050 BKN057 07/04 Q1000 BLU
17:25
V
7 °C 10 km+ 4,500 ft Var Var 2 kt METAR EHLW 251625Z AUTO VRB02KT 9999 BKN045 OVC058 07/04 Q1000 BLU
17:05
V
7 °C 10 km+ 3,500 ft 110° 110° 3 kt METAR EHLW 251605Z AUTO 11003KT 060V150 9999 BKN035 BKN042 OVC056 07/05 Q1000 BLU
16:55
V
7 °C 10 km+ 4,300 ft 120° 120° 3 kt METAR EHLW 251555Z AUTO 12003KT 100V170 9999 FEW032 BKN043 OVC052 07/05 Q1000 REDZ BLU
16:25
M
7 °C 5 km 3,200 ft 190° 190° 5 kt METAR EHLW 251525Z AUTO 19005KT 5000 +DZ FEW017 SCT026 OVC032 07/05 Q1000 WHT
15:55
V
8 °C 10 km+ 4,600 ft 220° 220° 2 kt METAR EHLW 251455Z AUTO 22002KT 9999 FEW020 SCT030 OVC046 08/04 Q1000 BLU
15:26
V
8 °C 10 km+ 4,500 ft 220° 220° 3 kt METAR EHLW 251426Z AUTO 22003KT 200V280 9999 FEW027 OVC045 08/04 Q1000 BLU
15:25
V
8 °C 10 km+ 3,400 ft 230° 230° 4 kt METAR EHLW 251425Z AUTO 23004KT 170V270 9999 SCT024 SCT028 BKN034 08/04 Q1000 WHT
15:12
V
8 °C 10 km+ 4,600 ft 220° 220° 4 kt METAR EHLW 251412Z AUTO 22004KT 140V270 9999 SCT024 SCT028 BKN046 08/04 Q1000 WHT
14:55
V
8 °C 10 km+ 3,200 ft 210° 210° 4 kt METAR EHLW 251355Z AUTO 21004KT 160V250 9999 FEW020 SCT028 BKN032 08/04 Q1000 BLU
14:25
V
8 °C 10 km+ 4,300 ft 200° 200° 4 kt METAR EHLW 251325Z AUTO 20004KT 160V240 9999 BKN043 08/05 Q1000 BLU
14:12
V
7 °C 10 km+ 4,200 ft 210° 210° 5 kt METAR EHLW 251312Z AUTO 21005KT 190V250 9999 FEW014 OVC042 07/04 Q1000 BLU
13:55
V
8 °C 10 km+ 3,900 ft 210° 210° 3 kt METAR EHLW 251255Z AUTO 21003KT 140V280 9999 OVC039 08/05 Q1000 BLU
13:25
V
7 °C 10 km+ 3,400 ft Var Var 2 kt METAR EHLW 251225Z AUTO VRB02KT 9999 BKN034 OVC038 07/05 Q1000 BLU
12:55
M
6 °C 10 km+ 3,000 ft Var Var 2 kt METAR EHLW 251155Z AUTO VRB02KT 9999 OVC030 06/04 Q1000 BLU
12:25
V
6 °C 10 km+ 3,500 ft Var Var 1 kt METAR EHLW 251125Z AUTO VRB01KT 9999 FEW015 OVC035 06/05 Q1000 BLU
11:55
V
6 °C 10 km+ 3,300 ft Var Var 1 kt METAR EHLW 251055Z AUTO VRB01KT 9999 OVC033 06/04 Q1000 BLU
11:38
M
5 °C 10 km+ 2,900 ft 040° 040° 1 kt METAR EHLW 251038Z AUTO 04001KT 9999 FEW017 SCT025 OVC029 05/04 Q1000 BLU
11:25
M
5 °C 10 km+ 2,100 ft Var Var 1 kt METAR EHLW 251025Z AUTO VRB01KT 9999 FEW017 BKN021 BKN025 05/04 Q1000 WHT
11:01
M
5 °C 10 km+ 2,800 ft Var Var 1 kt METAR EHLW 251001Z AUTO VRB01KT 9999 FEW020 SCT023 OVC028 05/04 Q1000 WHT
10:55
V
5 °C 10 km+ 3,300 ft Var Var 2 kt METAR EHLW 250955Z AUTO VRB02KT 9999 FEW028 OVC033 05/04 Q1000 BLU
10:37
M
5 °C 10 km+ 3,000 ft Var Var 2 kt METAR EHLW 250937Z AUTO VRB02KT 9999 FEW018 OVC030 05/04 Q1000 BLU
10:25
M
5 °C 10 km+ 1,800 ft Var Var 2 kt METAR EHLW 250925Z AUTO VRB02KT 9999 -RADZ BKN018 OVC021 05/04 Q1000 WHT
10:14
M
5 °C 6 km 2,000 ft 330° 330° 1 kt METAR EHLW 250914Z AUTO 33001KT 6000 -SHRA FEW013 SCT016 BKN020 05/05 Q1000 WHT
10:10
I
5 °C 4.9 km 1,300 ft Var Var 1 kt METAR EHLW 250910Z AUTO VRB01KT 4900 SHRA BKN013 OVC016 05/05 Q1000 GRN
10:06
M
5 °C 5 km 1,400 ft Var Var 2 kt METAR EHLW 250906Z AUTO VRB02KT 5000 -RA FEW002 BKN014 OVC016 05/04 Q0999 GRN
10:02
M
5 °C 6 km 1,500 ft Var Var 2 kt METAR EHLW 250902Z AUTO VRB02KT 6000 -RA FEW002 OVC015 05/05 Q0999 WHT
09:55
M
5 °C 10 km+ 1,200 ft 360° 360° 3 kt METAR EHLW 250855Z AUTO 36003KT 270V050 9999 FEW002 BKN012 OVC016 05/05 Q0999 REDZ GRN
09:37
I
5 °C 6 km 700 ft Var Var 2 kt METAR EHLW 250837Z AUTO VRB02KT 6000 DZ FEW003 BKN007 BKN008 05/05 Q0999 GRN
09:33
I
5 °C 5 km 800 ft 310° 310° 2 kt METAR EHLW 250833Z AUTO 31002KT 5000 -SHRA DZ FEW003 SCT004 BKN008 05/05 Q0999 YLO
09:25
I
5 °C 4.4 km 1,800 ft Var Var 2 kt METAR EHLW 250825Z AUTO VRB02KT 4400 DZ FEW004 SCT012 BKN018 05/05 Q0999 GRN
09:20
I
5 °C 3.9 km 2,100 ft Var Var 2 kt METAR EHLW 250820Z AUTO VRB02KT 3900 -RA FEW003 SCT013 BKN021 05/05 Q0999 GRN
09:07
I
5 °C 3.2 km 1,000 ft 250° 250° 3 kt METAR EHLW 250807Z AUTO 25003KT 220V320 3200 SHRA FEW004 SCT008 BKN010 05/05 Q0999 YLO
09:03
I
5 °C 4.4 km 1,000 ft 240° 240° 3 kt METAR EHLW 250803Z AUTO 24003KT 4400 -RA FEW005 SCT006 OVC010 05/05 Q0999 YLO
09:01
I
5 °C 4.6 km 800 ft 240° 240° 3 kt METAR EHLW 250801Z AUTO 24003KT 4600 +DZRA FEW003 SCT007 BKN008 05/05 Q0999 GRN
08:55
L
5 °C 5 km 400 ft 230° 230° 3 kt METAR EHLW 250755Z AUTO 23003KT 5000 -RA SCT003 BKN004 BKN006 05/05 Q0999 RERA REDZ YLO
08:38
I
5 °C 6 km 500 ft 240° 240° 4 kt METAR EHLW 250738Z AUTO 24004KT 200V260 6000 DZRA SCT004 BKN005 BKN007 05/05 Q0999 YLO
08:25
L
5 °C 8 km 400 ft 230° 230° 3 kt METAR EHLW 250725Z AUTO 23003KT 8000 -RADZ OVC004 05/04 Q0999 YLO
08:04
L
5 °C 9 km 400 ft 210° 210° 4 kt METAR EHLW 250704Z AUTO 21004KT 160V250 9000 BR BKN004 OVC005 05/04 Q0999 YLO
07:57
I
5 °C 9 km 500 ft 210° 210° 4 kt METAR EHLW 250657Z AUTO 21004KT 160V230 9000 BR BKN005 OVC006 05/04 Q0999 YLO
07:55
I
5 °C 10 km+ 500 ft 200° 200° 5 kt METAR EHLW 250655Z AUTO 20005KT 150V210 9999 BKN005 BKN007 OVC008 05/04 Q0999 YLO
07:39
I
5 °C 10 km+ 700 ft 190° 190° 6 kt METAR EHLW 250639Z AUTO 19006KT 150V210 9999 SCT006 BKN007 BKN009 05/04 Q0999 YLO
07:35
I
5 °C 10 km+ 800 ft 190° 190° 6 kt METAR EHLW 250635Z AUTO 19006KT 150V220 9999 FEW007 BKN008 BKN010 05/04 Q0999 GRN
07:34
M
5 °C 10 km+ 1,200 ft 190° 190° 6 kt METAR EHLW 250634Z AUTO 19006KT 150V220 9999 -RA FEW007 SCT008 BKN012 05/04 Q0999 GRN
07:27
M
5 °C 10 km+ 1,500 ft 190° 190° 6 kt METAR EHLW 250627Z AUTO 19006KT 150V220 9999 FEW006 SCT012 BKN015 05/04 Q0999 GRN
07:25
M
5 °C 10 km+ 1,600 ft 190° 190° 6 kt METAR EHLW 250625Z AUTO 19006KT 140V220 9999 FEW006 SCT009 BKN016 05/04 Q0999 REDZ GRN
07:05
I
4 °C 10 km+ 500 ft 170° 170° 6 kt METAR EHLW 250605Z AUTO 17006KT 140V200 9999 SCT004 BKN005 OVC007 04/04 Q0998 YLO
06:55
I
4 °C 6 km 700 ft 170° 170° 7 kt METAR EHLW 250555Z AUTO 17007KT 6000 DZ SCT005 BKN007 OVC009 04/04 Q0998 YLO